Reese River Valley, Nevada Weather observations

Data are for 10 minute period ending at time listed.
 Day   Time   Solar   Ave.   Ave.  Ave.  Vector  Max.   Baro.   Total    
  of    of     Rad.   Air    Rel.  Wind   Wind   Wind  Press.  Precip.   
Year   Day            Temp.  Hum.  Speed  Dir.   Gust                    
2015   (PST)  Kw/m2    F      %     mph   deg.    mph    mb.     in.     
-------------------------------------------------------------------------
  61   12:30   0.33   35.6    69    3.1   148     6.5   804.1    0.00 
  61   12:40   0.72   36.9    65    2.0   185     4.1   804.1    0.00 
  61   12:50   0.63   38.3    62    3.3   215     6.5   804.0    0.00 
  61   13:00   0.38   37.0    67    7.1   352    19.7   804.1    0.00 
  61   13:10   0.19   33.6    81   16.1    33    20.8   804.2    0.00 
  61   13:20   0.10   31.9    88   15.3    32    21.2   804.2    0.00 
  61   13:30   0.11   30.5    91   10.7    38    15.8   804.5    0.00 
  61   13:40   0.33   30.6    92    9.4    61    13.8   804.5    0.00 
  61   13:50   0.61   32.1    89    6.6    77     9.5   804.6    0.00 
  61   14:00   0.51   33.5    83    4.9    86     8.0   804.6    0.01 
  61   14:10   0.25   33.5    80    2.7    95     5.8   804.6    0.00 
  61   14:20   0.32   33.9    76    2.7    71     5.8   804.7    0.00 
  61   14:30   0.41   35.1    76    2.5   154     5.6   804.8    0.00 
  61   14:40   0.58   36.8    73    4.4   178     8.0   804.8    0.00 
  61   14:50   0.60   37.7    68    3.3   181     6.5   804.8    0.00 
  61   15:00   0.39   37.3    67    3.2   147     6.6   804.7    0.00 
  61   15:10   0.21   36.5    67    3.4   158     5.6   804.7    0.00 
  61   15:20   0.14   35.9    65    3.5   123     5.6   804.7    0.00 
  61   15:30   0.28   36.6    63    3.9   152     6.0   804.7    0.00 
  61   15:40   0.32   38.4    60    4.6   171     8.3   804.7    0.00 
  61   15:50   0.38   38.6    59    6.0   183     9.1   804.7    0.00 
  61   16:00   0.07   37.6    60    5.0   169     7.9   804.7    0.00 
  61   16:10   0.06   36.8    62    4.7   174     9.6   804.7    0.00 
  61   16:20   0.08   36.7    64    5.5   184     8.0   804.8    0.00 
  61   16:30   0.09   37.0    62    3.3   175     5.5   804.9    0.00 
  61   16:40   0.12   37.4    60    5.1   175     7.7   805.0    0.00 
  61   16:50   0.16   39.2    55    2.7   184     5.3   805.1    0.00 
  61   17:00   0.13   38.7    56    5.6   229     9.6   805.3    0.00 
  61   17:10   0.12   38.4    54    5.1   232    11.3   805.3    0.00 
  61   17:20   0.09   38.1    58    5.3   245     8.8   805.5    0.00 
  61   17:30   0.07   36.0    62    7.7   253    18.7   805.7    0.00 
  61   17:40   0.03   34.7    61    1.9   288     4.7   805.7    0.00 
  61   17:50   0.01   34.3    60    3.7   245     7.5   805.9    0.00 
  61   18:00   0.00   33.6    60    3.6   231     6.8   806.1    0.00 
  61   18:10   0.00   32.4    62    4.1   232     6.7   806.2    0.00 
  61   18:20   0.00   30.6    67    4.3   225     7.2   806.3    0.00 
  61   18:30   0.00   30.4    70    4.7   198     5.9   806.5    0.00 
  61   18:40   0.00   29.9    78    4.4   163     6.4   806.6    0.00 
  61   18:50   0.00   28.6    81    4.8   153     5.6   806.7    0.00 
  61   19:00   0.00   28.1    81    3.9   158     5.3   806.8    0.00 
  61   19:10   0.00   27.9    82    3.9   169     5.7   806.9    0.00 
  61   19:20   0.00   27.1    85    5.2   159     6.2   807.0    0.00 
  61   19:30   0.00   27.0    86    6.1   167     7.6   807.3    0.00 
  61   19:40   0.00   27.0    84    4.7   159     6.1   807.3    0.00 
  61   19:50   0.00   26.6    85    4.1   169     5.3   807.4    0.00 
  61   20:00   0.00   25.9    84    4.6   205     5.8   807.5    0.00 
  61   20:10   0.00   24.4    87    5.9   222     7.1   807.6    0.00 
  61   20:20   0.00   24.5    87    6.7   206     7.5   807.6    0.00 
  61   20:30   0.00   24.7    86    6.2   203     7.1   807.7    0.00 
  61   20:40   0.00   24.7    87    5.6   192     6.9   807.7    0.00 
  61   20:50   0.00   24.9    87    5.0   194     6.8   807.8    0.00 
  61   21:00   0.00   23.8    88    5.3   210     6.8   808.0    0.00 
  61   21:10   0.00   24.4    87    4.7   210     6.2   808.1    0.00 
  61   21:20   0.00   23.3    87    5.3   223     6.8   808.2    0.00 
  61   21:30   0.00   23.5    88    6.3   228     7.9   808.4    0.00 
  61   21:40   0.00   24.2    88    6.3   229     8.1   808.4    0.00 
  61   21:50   0.00   24.7    88    6.5   230     8.3   808.5    0.00 
  61   22:00   0.00   25.5    86    5.4   221     7.7   808.5    0.00 
  61   22:10   0.00   25.8    86    3.8   182     5.7   808.7    0.00 
  61   22:20   0.00   26.5    85    5.5   202     6.5   808.7    0.00 
  61   22:30   0.00   26.8    85    5.3   206     6.7   808.8    0.00 
  61   22:40   0.00   27.6    85    4.9   198     6.9   808.8    0.00 
  61   22:50   0.00   27.9    83    3.9   243     5.1   808.9    0.00 
  61   23:00   0.00   27.7    83    4.7   249     6.3   809.0    0.00 
  61   23:10   0.00   27.4    84    4.1   238     5.3   809.0    0.00 
  61   23:20   0.00   27.2    85    4.3   234     5.6   809.0    0.00 
  61   23:30   0.00   27.4    84    4.6   246     6.6   809.1    0.00 
  61   23:40   0.00   27.0    86    4.6   240     6.3   809.0    0.00 
  61   23:50   0.00   27.0    87    4.9   230     6.1   809.0    0.00 
  62    0:00   0.00   26.9    86    4.9   242     6.1   809.0    0.00 
  62    0:10   0.00   27.0    86    4.9   238     7.1   809.1    0.00 
  62    0:20   0.00   27.2    86    3.9   229     5.6   809.1    0.00 
  62    0:30   0.00   27.8    84    4.6   231     7.1   809.1    0.00 
  62    0:40   0.00   28.0    82    4.4   237     6.2   809.1    0.00 
  62    0:50   0.00   28.4    82    5.5   226     7.2   809.1    0.00 
  62    1:00   0.00   28.9    80    3.6   205     5.9   809.0    0.00 
  62    1:10   0.00   29.2    80    3.5   182     5.5   809.0    0.00 
  62    1:20   0.00   29.0    78    1.0   286     3.5   809.0    0.00 
  62    1:30   0.00   29.4    80    3.6   214    10.1   809.1    0.00 
  62    1:40   0.00   30.5    80    4.6   195     7.5   809.2    0.00 
  62    1:50   0.00   30.3    82    4.6   151     5.6   809.2    0.00 
  62    2:00   0.00   30.0    82    5.8   157     6.7   809.2    0.00 
  62    2:10   0.00   30.3    82    4.5   154     6.3   809.1    0.00 
  62    2:20   0.00   30.5    82    3.8   179     5.6   809.1    0.00 
  62    2:30   0.00   30.4    83    4.7   204     5.8   809.0    0.00 
  62    2:40   0.00   30.5    84    4.5   180     6.8   809.0    0.00 
  62    2:50   0.00   30.7    85    4.8   194     7.3   808.9    0.00 
  62    3:00   0.00   30.5    87    3.2   204     4.7   808.9    0.00 
  62    3:10   0.00   30.2    89    1.8   278     3.1   808.9    0.00 
  62    3:20   0.00   29.7    91    1.4     3     2.5   808.9    0.00 
  62    3:30   0.00   29.3    94    3.0    72     3.7   808.9    0.00 
  62    3:40   0.00   29.2    95    3.1   110     3.9   808.9    0.00 
  62    3:50   0.00   29.1    96    2.5   131     3.7   808.8    0.00 
  62    4:00   0.00   29.0    96    3.4   132     4.4   808.8    0.00 
  62    4:10   0.00   28.9    96    2.1   134     3.1   808.8    0.00 
  62    4:20   0.00   29.0    96    1.4   151     2.8   808.8    0.00 
  62    4:30   0.00   28.9    96    0.5   208     1.9   808.8    0.00 
  62    4:40   0.00   28.8    95    1.9   219     2.7   808.9    0.00 
  62    4:50   0.00   28.4    95    2.0   220     3.4   809.0    0.00 
  62    5:00   0.00   27.4    95    4.2   224     4.9   808.9    0.00 
  62    5:10   0.00   27.4    94    3.3   230     4.1   809.0    0.00 
  62    5:20   0.00   28.0    95    2.2   247     4.0   809.1    0.00 
  62    5:30   0.00   28.3    95    2.2   219     3.0   809.0    0.00 
  62    5:40   0.00   28.2    95    2.6   147     4.2   809.0    0.00 
  62    5:50   0.00   27.7    95    4.1   106     6.9   808.9    0.00 
  62    6:00   0.00   27.1    95    4.2   126     5.7   808.9    0.00 
  62    6:10   0.00   27.0    95    4.7   135     5.9   808.9    0.00 
  62    6:20   0.00   27.3    94    4.1   145     6.2   808.9    0.00 
  62    6:30   0.00   27.4    94    3.5   241     4.8   808.9    0.00 
  62    6:40   0.00   27.1    95    3.2   284     4.5   809.0    0.00 
  62    6:50   0.01   27.3    95    2.4   323     3.5   809.2    0.00 
  62    7:00   0.01   27.5    95    2.6    38     3.9   809.3    0.00 
  62    7:10   0.03   27.2    95    3.0    76     4.1   809.5    0.00 
  62    7:20   0.02   27.9    96    3.7     4     5.9   809.7    0.00 
  62    7:30   0.02   28.6    97    5.5     4     9.3   809.8    0.00 
  62    7:40   0.02   27.4    95   13.3    19    19.2   810.2    0.00 
  62    7:50   0.03   26.0    95   10.9    10    15.0   810.4    0.00 
  62    8:00   0.04   25.9    96    9.4    12    12.6   810.6    0.00 
  62    8:10   0.11   25.8    96   10.2    13    16.1   810.8    0.00 
  62    8:20   0.16   25.7    95   11.7    16    17.5   810.9    0.00 
  62    8:30   0.17   25.7    94   10.5    21    13.2   811.0    0.00 
  62    8:40   0.15   26.1    91   11.9    20    15.5   811.2    0.00 
  62    8:50   0.19   26.2    89   10.7    12    14.6   811.4    0.00 
  62    9:00   0.20   26.4    88   10.5    18    14.3   811.5    0.00 
  62    9:10   0.17   26.3    86   11.3    20    15.1   811.6    0.00 
  62    9:20   0.22   26.6    84   10.4    28    13.9   811.8    0.00 
  62    9:30   0.27   27.2    81   12.4    38    15.9   811.9    0.00 
  62    9:40   0.28   27.5    79   10.7    39    15.4   811.9    0.00 
  62    9:50   0.38   28.0    76   10.7    41    14.8   812.0    0.00 
  62   10:00   0.55   28.9    74   10.2    39    13.2   811.9    0.00 
  62   10:10   0.34   28.4    75    9.8    33    14.2   811.9    0.00 
  62   10:20   0.22   28.0    75    7.6    34    12.9   812.0    0.00 
  62   10:30   0.57   29.1    72    5.4    27    11.2   812.0    0.00 
  62   10:40   0.28   29.0    69    6.9    41    10.0   812.1    0.00 
  62   10:50   0.66   29.2    69    6.1    51     8.4   812.0    0.00 
  62   11:00   0.74   30.5    66    6.3    52     9.3   812.0    0.03 
  62   11:10   0.71   30.7    63    5.6    33     7.9   811.9    0.02 
  62   11:20   0.31   29.6    64    6.1    26     9.4   811.8    0.00 
  62   11:30   0.34   29.4    66    4.9    39     7.5   811.8    0.00 
  62   11:40   0.33   29.2    65    6.2    26    10.5   811.7    0.01 
  62   11:50   0.42   29.9    62    4.6    36     8.6   811.7    0.00 
  62   12:00   0.36   29.6    63    6.5     9    10.5   811.6    0.00 
  62   12:10   0.40   29.8    64    8.2     2    12.7   811.6    0.00 
  62   12:20   0.36   29.2    65    7.7    14    11.2   811.6    0.00 

Return to Reese River Valley graphs page.


Western Regional Climate Center,wrcc@dri.edu